Time;durP1;ratioP1;P1;durP2;ratioP2;P2;SDS_P1;SDS_P2;PMS_P1;PMS_P2;Temp;Humidity;BMP_temperature;BMP_pressure;BME280_temperature;BME280_humidity;BME280_pressure;Samples;Min_cycle;Max_cycle;Signal;HPM_P1;HPM_P2
2023/06/15 00:01:40;;;;;;;7.28;3.58;;;16.00;97.60;;;;;;5047762;28;20475;-75
2023/06/15 00:04:06;;;;;;;6.82;3.85;;;16.00;98.00;;;;;;5068871;28;20090;-74
2023/06/15 00:06:32;;;;;;;4.95;3.65;;;15.90;98.10;;;;;;5058767;28;20039;-74
2023/06/15 00:08:58;;;;;;;5.38;3.85;;;15.90;98.30;;;;;;5045506;28;20064;-74
2023/06/15 00:11:24;;;;;;;9.73;4.00;;;15.90;98.50;;;;;;5050752;28;20130;-74
2023/06/15 00:13:50;;;;;;;8.85;4.07;;;15.80;98.90;;;;;;5055903;28;20056;-74
2023/06/15 00:16:18;;;;;;;5.85;3.40;;;15.70;99.50;;;;;;5056250;28;20410;-74
2023/06/15 00:18:47;;;;;;;6.22;3.45;;;15.70;99.40;;;;;;5047983;28;20048;-75
2023/06/15 00:21:15;;;;;;;6.07;3.95;;;15.70;99.60;;;;;;5041689;28;20438;-74
2023/06/15 00:23:42;;;;;;;7.40;3.63;;;15.60;99.70;;;;;;5072244;28;20036;-75
2023/06/15 00:26:07;;;;;;;6.22;4.03;;;15.60;99.90;;;;;;5054841;28;20115;-74
2023/06/15 00:28:33;;;;;;;5.40;3.63;;;15.50;99.90;;;;;;5064217;28;20636;-74
2023/06/15 00:31:00;;;;;;;7.32;3.92;;;15.50;99.90;;;;;;5062197;28;20037;-74
2023/06/15 00:33:25;;;;;;;8.30;3.90;;;15.40;99.90;;;;;;5047199;28;20040;-74
2023/06/15 00:35:51;;;;;;;5.43;3.80;;;15.30;99.90;;;;;;5030034;28;20405;-74
2023/06/15 00:38:17;;;;;;;6.20;3.95;;;15.30;99.90;;;;;;5054034;28;20032;-75
2023/06/15 00:40:42;;;;;;;7.00;3.90;;;15.30;99.90;;;;;;5058787;28;20508;-74
2023/06/15 00:43:08;;;;;;;8.68;3.88;;;15.20;99.90;;;;;;5038363;28;20406;-75
2023/06/15 00:45:34;;;;;;;5.95;3.70;;;15.20;99.90;;;;;;5043248;28;20040;-74
2023/06/15 00:48:00;;;;;;;3.85;3.45;;;15.20;99.90;;;;;;5046894;28;20414;-74
2023/06/15 00:50:30;;;;;;;8.20;3.70;;;15.10;99.90;;;;;;5056774;28;20065;-74
2023/06/15 00:52:59;;;;;;;4.32;3.35;;;15.10;99.90;;;;;;5054157;28;20056;-74
2023/06/15 00:55:25;;;;;;;6.68;4.13;;;15.10;99.90;;;;;;5044429;28;20072;-74
2023/06/15 00:57:52;;;;;;;6.35;3.63;;;15.00;99.90;;;;;;5045137;28;20044;-74
2023/06/15 01:00:19;;;;;;;8.68;3.40;;;15.00;99.90;;;;;;5063756;28;20452;-74
2023/06/15 01:02:48;;;;;;;8.25;4.03;;;14.90;99.90;;;;;;5059290;28;20051;-74
2023/06/15 01:05:16;;;;;;;6.55;4.18;;;14.90;99.90;;;;;;5060789;28;20094;-75
2023/06/15 01:07:47;;;;;;;11.23;4.22;;;14.90;99.90;;;;;;5042659;28;20141;-74
2023/06/15 01:10:14;;;;;;;8.50;4.30;;;14.90;99.90;;;;;;5061660;28;20071;-75
2023/06/15 01:12:44;;;;;;;11.02;4.38;;;14.80;99.90;;;;;;5076530;28;20047;-74
2023/06/15 01:15:13;;;;;;;8.75;3.83;;;14.80;99.90;;;;;;5043339;28;20117;-75
2023/06/15 01:17:44;;;;;;;9.50;3.85;;;14.80;99.90;;;;;;5089819;28;20059;-75
2023/06/15 01:20:21;;;;;;;12.88;4.07;;;14.70;99.90;;;;;;5058830;28;20490;-73
2023/06/15 01:22:59;;;;;;;7.75;4.13;;;14.70;99.90;;;;;;5059889;28;20179;-74
2023/06/15 01:25:39;;;;;;;11.10;4.50;;;14.60;99.90;;;;;;5079065;28;20043;-74
2023/06/15 01:28:06;;;;;;;8.88;3.95;;;14.60;99.90;;;;;;5050530;28;20044;-74
2023/06/15 01:30:48;;;;;;;6.25;3.92;;;14.60;99.90;;;;;;5079141;28;20052;-74
2023/06/15 01:33:15;;;;;;;7.17;3.97;;;14.50;99.90;;;;;;5062695;28;20048;-75
2023/06/15 01:35:41;;;;;;;8.90;4.22;;;14.60;99.90;;;;;;5061111;28;20123;-74
2023/06/15 01:38:07;;;;;;;8.98;4.00;;;14.50;99.90;;;;;;5014811;28;20132;-74
2023/06/15 01:40:35;;;;;;;9.70;3.55;;;14.50;99.90;;;;;;5064123;28;20630;-74
2023/06/15 01:43:02;;;;;;;9.13;4.43;;;14.50;99.90;;;;;;5047956;28;20040;-74
2023/06/15 01:45:30;;;;;;;6.13;4.00;;;14.50;99.90;;;;;;5045297;28;20107;-74
2023/06/15 01:47:56;;;;;;;9.32;4.05;;;14.50;99.90;;;;;;5057026;28;20032;-74
2023/06/15 01:50:23;;;;;;;5.28;4.07;;;14.50;99.90;;;;;;5063203;28;20025;-75
2023/06/15 01:52:49;;;;;;;6.53;3.92;;;14.50;99.90;;;;;;5077676;28;20044;-74
2023/06/15 01:55:15;;;;;;;7.47;4.05;;;14.40;99.90;;;;;;5050148;28;20033;-74
2023/06/15 01:57:41;;;;;;;8.45;4.78;;;14.40;99.90;;;;;;5092620;27;20037;-74
2023/06/15 02:00:10;;;;;;;6.28;4.30;;;14.30;99.90;;;;;;5036344;28;20056;-74
2023/06/15 02:02:36;;;;;;;8.32;4.13;;;14.30;99.90;;;;;;5054394;28;20102;-75
2023/06/15 02:05:05;;;;;;;6.68;4.65;;;14.30;99.90;;;;;;5031601;28;20052;-74
2023/06/15 02:07:32;;;;;;;9.07;5.07;;;14.30;99.90;;;;;;5076420;28;20052;-74
2023/06/15 02:09:57;;;;;;;7.72;4.60;;;14.20;99.90;;;;;;5048266;28;20055;-75
2023/06/15 02:12:23;;;;;;;12.95;4.50;;;14.20;99.90;;;;;;5048045;28;20048;-74
2023/06/15 02:14:49;;;;;;;6.13;4.53;;;14.20;99.90;;;;;;5051580;28;20432;-74
2023/06/15 02:17:17;;;;;;;14.63;5.10;;;14.20;99.90;;;;;;5029433;28;20043;-74
2023/06/15 02:19:45;;;;;;;13.63;4.85;;;14.10;99.90;;;;;;5039768;28;20052;-74
2023/06/15 02:22:10;;;;;;;6.38;4.70;;;14.10;99.90;;;;;;5075311;28;20037;-74
2023/06/15 02:24:36;;;;;;;9.00;5.13;;;14.10;99.90;;;;;;5039768;28;20040;-74
2023/06/15 02:27:02;;;;;;;8.85;4.78;;;14.00;99.90;;;;;;5044098;28;20037;-74
2023/06/15 02:29:27;;;;;;;7.68;5.40;;;14.00;99.90;;;;;;5060972;28;20037;-74
2023/06/15 02:31:53;;;;;;;9.23;5.53;;;14.00;99.90;;;;;;5055141;28;20480;-74
2023/06/15 02:34:20;;;;;;;6.43;4.95;;;14.00;99.90;;;;;;5058471;28;20036;-75
2023/06/15 02:36:48;;;;;;;12.50;5.45;;;13.90;99.90;;;;;;5044730;28;20048;-75
2023/06/15 02:39:14;;;;;;;7.22;4.88;;;13.90;99.90;;;;;;5043045;28;20185;-74
2023/06/15 02:41:40;;;;;;;8.55;4.65;;;13.90;99.90;;;;;;5063105;28;20028;-75
2023/06/15 02:44:07;;;;;;;9.32;5.25;;;13.90;99.90;;;;;;5044047;28;20037;-75
2023/06/15 02:46:33;;;;;;;8.00;4.95;;;13.80;99.90;;;;;;5072028;28;20036;-75
2023/06/15 02:48:59;;;;;;;5.97;5.03;;;13.80;99.90;;;;;;5038735;28;20430;-74
2023/06/15 02:51:24;;;;;;;9.05;4.50;;;13.90;99.90;;;;;;5048370;28;20045;-74
2023/06/15 02:53:50;;;;;;;10.43;5.25;;;13.90;99.90;;;;;;5034762;28;20629;-74
2023/06/15 02:56:18;;;;;;;6.78;4.93;;;13.80;99.90;;;;;;5071466;28;20141;-75
2023/06/15 02:58:57;;;;;;;8.02;5.43;;;13.80;99.90;;;;;;5034147;28;20072;-75
2023/06/15 03:01:23;;;;;;;5.90;4.40;;;13.80;99.90;;;;;;5045443;28;20588;-75
2023/06/15 03:03:50;;;;;;;9.52;4.55;;;13.80;99.90;;;;;;5069369;28;20033;-75
2023/06/15 03:06:16;;;;;;;6.57;4.50;;;13.70;99.90;;;;;;5048203;28;20039;-75
2023/06/15 03:08:42;;;;;;;7.45;4.82;;;13.70;99.90;;;;;;5053820;28;20410;-75
2023/06/15 03:11:08;;;;;;;6.90;5.18;;;13.70;99.90;;;;;;5054394;28;20044;-75
2023/06/15 03:13:34;;;;;;;12.02;5.47;;;13.60;99.90;;;;;;5037627;28;20098;-75
2023/06/15 03:16:01;;;;;;;9.68;5.35;;;13.60;99.90;;;;;;5061311;28;20067;-75
2023/06/15 03:18:28;;;;;;;13.13;5.10;;;13.60;99.90;;;;;;5036589;28;20120;-74
2023/06/15 03:20:54;;;;;;;7.63;5.50;;;13.50;99.90;;;;;;5052286;28;20429;-75
2023/06/15 03:23:20;;;;;;;7.75;5.35;;;13.50;99.90;;;;;;5063717;28;20059;-75
2023/06/15 03:25:46;;;;;;;10.65;5.63;;;13.50;99.90;;;;;;5088419;27;20037;-75
2023/06/15 03:28:12;;;;;;;7.45;5.88;;;13.50;99.90;;;;;;5054899;28;20051;-75
2023/06/15 03:30:40;;;;;;;8.05;5.60;;;13.40;99.90;;;;;;5055759;28;20045;-75
2023/06/15 03:33:07;;;;;;;8.70;5.20;;;13.50;99.90;;;;;;5073328;28;20046;-75
2023/06/15 03:35:33;;;;;;;7.75;5.55;;;13.40;99.90;;;;;;5061122;28;20044;-75
2023/06/15 03:37:59;;;;;;;10.10;5.43;;;13.40;99.90;;;;;;5038915;28;20041;-75
2023/06/15 03:40:25;;;;;;;8.95;5.65;;;13.40;99.90;;;;;;5049223;28;20735;-75
2023/06/15 03:42:51;;;;;;;6.80;5.53;;;13.40;99.90;;;;;;5063944;28;20044;-75
2023/06/15 03:45:17;;;;;;;7.97;5.35;;;13.40;99.90;;;;;;5059106;28;20041;-75
2023/06/15 03:47:46;;;;;;;7.47;5.15;;;13.40;99.90;;;;;;5054366;28;20064;-75
2023/06/15 03:50:12;;;;;;;10.68;5.38;;;13.40;99.90;;;;;;5048340;28;20033;-74
2023/06/15 03:52:38;;;;;;;8.77;5.38;;;13.40;99.90;;;;;;5091362;27;20033;-75
2023/06/15 03:55:05;;;;;;;10.55;5.13;;;13.40;99.90;;;;;;5042031;28;20047;-74
2023/06/15 03:57:31;;;;;;;7.10;5.22;;;13.40;99.90;;;;;;5055448;28;20036;-75
2023/06/15 03:59:56;;;;;;;8.07;5.35;;;13.40;99.90;;;;;;5058751;28;20048;-75
2023/06/15 04:02:22;;;;;;;6.95;5.18;;;13.30;99.90;;;;;;5039003;28;20037;-74
2023/06/15 04:04:48;;;;;;;13.98;5.65;;;13.40;99.90;;;;;;5071300;28;20041;-74
2023/06/15 04:07:17;;;;;;;9.73;5.38;;;13.40;99.90;;;;;;5081524;28;20076;-75
2023/06/15 04:09:42;;;;;;;10.50;6.00;;;13.40;99.90;;;;;;5040728;28;20053;-75
2023/06/15 04:12:08;;;;;;;9.50;5.63;;;13.40;99.90;;;;;;5059148;28;20086;-75
2023/06/15 04:14:34;;;;;;;7.90;5.03;;;13.40;99.90;;;;;;5035109;28;20070;-75
2023/06/15 04:17:00;;;;;;;9.68;5.40;;;13.40;99.90;;;;;;5097586;27;20127;-75
2023/06/15 04:19:25;;;;;;;9.43;5.68;;;13.40;99.90;;;;;;5054805;28;20098;-75
2023/06/15 04:21:51;;;;;;;9.32;5.55;;;13.50;99.90;;;;;;5032218;28;20067;-74
2023/06/15 04:24:17;;;;;;;11.15;5.93;;;13.50;99.90;;;;;;5044092;28;20482;-74
2023/06/15 04:26:42;;;;;;;12.82;5.70;;;13.50;99.90;;;;;;5038655;28;20045;-75
2023/06/15 04:29:08;;;;;;;9.88;5.80;;;13.50;99.90;;;;;;5043986;28;20410;-75
2023/06/15 04:31:34;;;;;;;10.10;5.80;;;13.50;99.90;;;;;;5082453;28;20128;-74
2023/06/15 04:34:04;;;;;;;9.73;5.90;;;13.50;99.90;;;;;;5041802;28;20068;-75
2023/06/15 04:36:31;;;;;;;8.32;5.80;;;13.50;99.90;;;;;;5055939;28;20041;-75
2023/06/15 04:38:58;;;;;;;8.80;5.40;;;13.60;99.90;;;;;;5090323;28;20098;-75
2023/06/15 04:41:24;;;;;;;9.63;5.47;;;13.60;99.90;;;;;;5050362;28;20131;-75
2023/06/15 04:43:50;;;;;;;8.00;5.70;;;13.60;99.90;;;;;;5040703;28;21438;-75
2023/06/15 04:46:17;;;;;;;8.40;5.30;;;13.60;99.90;;;;;;5042061;28;20025;-75
2023/06/15 04:48:43;;;;;;;13.43;6.20;;;13.70;99.90;;;;;;5059456;28;20053;-75
2023/06/15 04:51:12;;;;;;;9.40;4.97;;;13.70;99.90;;;;;;5050259;28;20079;-75
2023/06/15 04:53:39;;;;;;;14.70;6.68;;;13.80;99.90;;;;;;5036403;28;20040;-75
2023/06/15 04:56:05;;;;;;;11.82;6.18;;;13.80;99.90;;;;;;5050970;28;20043;-75
2023/06/15 04:58:31;;;;;;;8.95;5.97;;;13.80;99.90;;;;;;5063845;28;20062;-74
2023/06/15 05:00:56;;;;;;;7.30;5.38;;;13.90;99.90;;;;;;5060110;28;20049;-75
2023/06/15 05:03:23;;;;;;;8.85;5.95;;;13.90;99.90;;;;;;5061544;28;20045;-75
2023/06/15 05:05:48;;;;;;;8.93;5.90;;;14.00;99.90;;;;;;5060721;28;20052;-75
2023/06/15 05:08:15;;;;;;;8.88;5.80;;;14.00;99.90;;;;;;5068467;28;20044;-75
2023/06/15 05:10:41;;;;;;;8.77;5.40;;;14.10;99.90;;;;;;5049738;28;20064;-75
2023/06/15 05:13:07;;;;;;;10.48;6.32;;;14.10;99.90;;;;;;5052153;28;20037;-75
2023/06/15 05:15:33;;;;;;;8.02;5.93;;;14.20;99.90;;;;;;5071108;28;20145;-75
2023/06/15 05:17:59;;;;;;;7.45;5.50;;;14.30;99.90;;;;;;5058207;28;21650;-75
2023/06/15 05:20:24;;;;;;;8.95;5.97;;;14.30;99.90;;;;;;5069101;28;20115;-75
2023/06/15 05:22:51;;;;;;;10.60;6.03;;;14.40;99.90;;;;;;5058364;28;20037;-75
2023/06/15 05:25:18;;;;;;;6.65;5.35;;;14.50;99.90;;;;;;5071799;28;20469;-74
2023/06/15 05:27:43;;;;;;;8.73;5.63;;;14.50;99.90;;;;;;5059675;28;20600;-76
2023/06/15 05:30:11;;;;;;;9.35;5.82;;;14.60;99.90;;;;;;5070505;28;20033;-75
2023/06/15 05:32:38;;;;;;;10.02;5.47;;;14.70;99.90;;;;;;5051119;28;20054;-75
2023/06/15 05:35:08;;;;;;;8.68;5.63;;;14.80;99.90;;;;;;5061205;28;20071;-75
2023/06/15 05:37:35;;;;;;;11.45;5.68;;;14.90;99.90;;;;;;5052678;28;20037;-76
2023/06/15 05:40:02;;;;;;;12.38;5.55;;;14.90;99.90;;;;;;5073449;28;20036;-75
2023/06/15 05:42:31;;;;;;;10.05;5.55;;;15.00;99.90;;;;;;5059835;28;20084;-75
2023/06/15 05:44:56;;;;;;;7.80;5.85;;;15.10;99.90;;;;;;5079126;28;20032;-76
2023/06/15 05:47:22;;;;;;;10.40;5.88;;;15.20;99.90;;;;;;5070228;28;20564;-75
2023/06/15 05:49:48;;;;;;;8.32;5.82;;;15.30;99.90;;;;;;5047642;28;20048;-75
2023/06/15 05:52:15;;;;;;;10.40;5.80;;;15.30;99.90;;;;;;5063407;28;20029;-76
2023/06/15 05:54:45;;;;;;;11.35;5.57;;;15.40;99.90;;;;;;5054144;28;20092;-75
2023/06/15 05:57:11;;;;;;;8.23;5.03;;;15.50;99.90;;;;;;5042595;28;20036;-75
2023/06/15 05:59:37;;;;;;;7.40;5.25;;;15.60;99.90;;;;;;5047352;28;20049;-75
2023/06/15 06:02:04;;;;;;;7.18;4.90;;;15.70;99.90;;;;;;5071233;28;20116;-76
2023/06/15 06:04:30;;;;;;;12.02;5.32;;;15.80;99.90;;;;;;5062513;28;20066;-75
2023/06/15 06:06:56;;;;;;;11.90;5.15;;;15.90;99.90;;;;;;5061625;28;20493;-75
2023/06/15 06:09:21;;;;;;;8.18;4.90;;;16.00;99.90;;;;;;5051009;28;20037;-76
2023/06/15 06:11:47;;;;;;;9.35;4.60;;;16.20;99.90;;;;;;5096107;28;20119;-75
2023/06/15 06:14:16;;;;;;;9.13;5.38;;;16.20;99.90;;;;;;5035118;28;20037;-75
2023/06/15 06:16:43;;;;;;;8.73;4.68;;;16.30;99.90;;;;;;5061878;28;20055;-75
2023/06/15 06:19:08;;;;;;;10.27;4.32;;;16.40;99.90;;;;;;5075868;28;20056;-75
2023/06/15 06:21:34;;;;;;;6.95;4.35;;;16.50;99.90;;;;;;5066239;28;20613;-67
2023/06/15 06:24:00;;;;;;;13.10;4.60;;;16.60;99.90;;;;;;5063919;28;20041;-67
2023/06/15 06:26:26;;;;;;;7.50;4.00;;;16.70;99.90;;;;;;5080997;28;20056;-67
2023/06/15 06:28:55;;;;;;;6.45;4.80;;;16.80;99.90;;;;;;5068313;28;20067;-67
2023/06/15 06:31:21;;;;;;;8.35;4.65;;;17.00;99.90;;;;;;5075398;28;20044;-67
2023/06/15 06:33:46;;;;;;;7.10;4.25;;;17.10;99.90;;;;;;5058153;28;20036;-67
2023/06/15 06:36:12;;;;;;;7.90;4.63;;;17.20;99.90;;;;;;5065593;28;20094;-67
2023/06/15 06:38:38;;;;;;;6.15;4.07;;;17.30;99.90;;;;;;5072655;28;20501;-67
2023/06/15 06:41:04;;;;;;;7.15;4.10;;;17.40;99.90;;;;;;5064835;28;20417;-67
2023/06/15 06:43:29;;;;;;;6.13;4.80;;;17.60;99.90;;;;;;5096134;28;20033;-68
2023/06/15 06:45:55;;;;;;;7.20;4.07;;;17.70;99.90;;;;;;5064868;28;20444;-68
2023/06/15 06:48:21;;;;;;;9.82;4.38;;;17.80;99.90;;;;;;5069266;28;20521;-67
2023/06/15 06:50:47;;;;;;;8.07;4.75;;;18.00;99.90;;;;;;5066584;28;20164;-67
2023/06/15 06:53:12;;;;;;;8.02;4.00;;;18.10;99.90;;;;;;5062257;28;20402;-68
2023/06/15 06:55:38;;;;;;;8.25;3.92;;;18.20;99.90;;;;;;5103501;28;20041;-69
2023/06/15 06:58:05;;;;;;;9.15;4.32;;;18.40;99.90;;;;;;5103446;28;20043;-75
2023/06/15 07:00:31;;;;;;;7.05;3.90;;;18.50;99.90;;;;;;5039765;28;1094918;-67
2023/06/15 07:02:57;;;;;;;7.35;4.30;;;18.70;99.90;;;;;;5062130;28;20486;-67
2023/06/15 07:05:23;;;;;;;7.22;3.72;;;18.90;99.90;;;;;;5064255;28;21563;-67
2023/06/15 07:07:49;;;;;;;13.88;4.50;;;19.00;99.70;;;;;;5063419;28;20041;-65
2023/06/15 07:10:15;;;;;;;8.25;3.35;;;19.20;99.60;;;;;;5062229;28;20071;-64
2023/06/15 07:12:40;;;;;;;8.93;4.45;;;19.40;99.10;;;;;;5040046;28;20149;-64
2023/06/15 07:15:07;;;;;;;7.82;3.53;;;19.60;98.50;;;;;;5059734;28;20943;-64
2023/06/15 07:17:33;;;;;;;6.00;3.42;;;19.70;97.90;;;;;;5067541;28;20484;-64
2023/06/15 07:19:59;;;;;;;10.43;3.53;;;20.00;97.50;;;;;;5070675;28;20040;-65
2023/06/15 07:22:24;;;;;;;7.38;3.85;;;20.20;97.10;;;;;;5066970;28;20469;-64
2023/06/15 07:24:51;;;;;;;7.07;3.60;;;20.30;96.40;;;;;;5070966;28;20035;-64
2023/06/15 07:27:18;;;;;;;7.90;3.53;;;20.50;95.60;;;;;;5076239;28;20254;-64
2023/06/15 07:29:44;;;;;;;9.63;3.90;;;20.60;95.60;;;;;;5071249;28;20048;-65
2023/06/15 07:32:10;;;;;;;7.88;3.88;;;20.70;95.30;;;;;;5071451;28;20044;-65
2023/06/15 07:34:36;;;;;;;6.68;3.55;;;20.90;94.90;;;;;;5074217;28;20036;-76
2023/06/15 07:37:02;;;;;;;7.38;3.78;;;21.10;94.60;;;;;;5067722;28;20048;-75
2023/06/15 07:39:27;;;;;;;4.22;3.70;;;21.20;94.00;;;;;;5056120;28;20056;-76
2023/06/15 07:41:53;;;;;;;7.38;3.67;;;21.30;93.50;;;;;;5049895;28;20036;-76
2023/06/15 07:44:19;;;;;;;6.35;3.95;;;21.50;93.10;;;;;;5055189;28;20040;-75
2023/06/15 07:46:45;;;;;;;8.23;3.97;;;21.60;92.40;;;;;;5052359;28;20051;-75
2023/06/15 07:49:10;;;;;;;14.77;3.90;;;21.70;91.80;;;;;;5034408;28;20068;-75
2023/06/15 07:51:36;;;;;;;5.13;3.08;;;21.80;91.30;;;;;;5056575;28;20528;-75
2023/06/15 07:54:02;;;;;;;5.47;3.85;;;21.80;90.50;;;;;;5054302;28;20446;-75
2023/06/15 07:56:28;;;;;;;6.60;3.38;;;22.00;90.50;;;;;;5056721;28;20048;-75
2023/06/15 07:58:54;;;;;;;4.50;2.97;;;22.10;90.00;;;;;;5051868;28;20105;-76
2023/06/15 08:01:20;;;;;;;5.30;2.90;;;22.20;90.00;;;;;;5073171;28;20448;-76
2023/06/15 08:03:46;;;;;;;5.80;3.42;;;22.20;89.10;;;;;;5044814;28;20040;-75
2023/06/15 08:06:12;;;;;;;6.75;2.90;;;22.30;88.70;;;;;;5048718;28;20024;-76
2023/06/15 08:08:37;;;;;;;8.27;3.90;;;22.40;88.00;;;;;;5071131;28;21068;-76
2023/06/15 08:11:06;;;;;;;4.82;3.20;;;22.50;87.30;;;;;;5049806;28;20531;-75
2023/06/15 08:13:32;;;;;;;5.65;3.10;;;22.50;87.60;;;;;;5058093;28;20173;-76
2023/06/15 08:15:58;;;;;;;7.25;3.50;;;22.70;86.70;;;;;;5055765;28;20555;-76
2023/06/15 08:18:26;;;;;;;5.03;3.20;;;22.70;86.30;;;;;;5071402;28;20090;-76
2023/06/15 08:20:52;;;;;;;6.65;3.15;;;22.90;85.90;;;;;;5044582;28;20054;-76
2023/06/15 08:23:17;;;;;;;6.75;3.45;;;23.00;85.70;;;;;;5061119;28;20082;-76
2023/06/15 08:25:43;;;;;;;6.22;3.58;;;23.00;85.40;;;;;;5065079;28;20117;-75
2023/06/15 08:28:09;;;;;;;8.35;3.72;;;23.20;85.20;;;;;;5065587;28;20495;-75
2023/06/15 08:30:35;;;;;;;5.45;3.53;;;23.20;84.60;;;;;;5063889;28;20055;-76
2023/06/15 08:33:01;;;;;;;4.70;3.47;;;23.40;84.10;;;;;;5066412;28;20562;-76
2023/06/15 08:35:26;;;;;;;6.40;3.50;;;23.50;82.80;;;;;;5034649;28;20746;-74
2023/06/15 08:37:52;;;;;;;6.88;2.97;;;23.60;82.00;;;;;;5049102;28;20036;-76
2023/06/15 08:40:19;;;;;;;13.32;3.75;;;23.70;81.40;;;;;;5085228;28;20548;-74
2023/06/15 08:42:46;;;;;;;5.13;3.55;;;23.80;81.10;;;;;;5048807;28;20051;-76
2023/06/15 08:45:12;;;;;;;5.07;3.30;;;23.90;80.80;;;;;;5037780;28;20195;-76
2023/06/15 08:47:39;;;;;;;6.43;3.50;;;24.00;80.00;;;;;;5057695;28;20527;-76
2023/06/15 08:50:06;;;;;;;5.88;3.25;;;24.00;79.70;;;;;;5039051;28;20041;-75
2023/06/15 08:52:34;;;;;;;3.90;3.00;;;24.20;79.30;;;;;;5057159;28;20048;-75
2023/06/15 08:55:02;;;;;;;6.22;3.13;;;24.30;79.00;;;;;;5071085;28;20040;-75
2023/06/15 08:57:28;;;;;;;6.70;3.42;;;24.50;78.80;;;;;;5047071;28;20042;-75
2023/06/15 08:59:55;;;;;;;10.45;3.40;;;24.50;77.40;;;;;;5038994;28;20138;-76
2023/06/15 09:02:23;;;;;;;7.10;3.38;;;24.70;76.40;;;;;;5056647;28;20040;-75
2023/06/15 09:04:53;;;;;;;6.18;3.15;;;24.70;75.70;;;;;;5057146;28;20401;-75
2023/06/15 09:07:20;;;;;;;9.90;3.70;;;24.80;75.20;;;;;;5058266;28;20032;-75
2023/06/15 09:10:18;;;;;;;6.72;3.20;;;24.90;74.20;;;;;;5056390;28;20088;-75
2023/06/15 09:12:46;;;;;;;6.18;3.45;;;25.00;72.70;;;;;;5073959;28;20833;-75
2023/06/15 09:15:18;;;;;;;7.03;3.35;;;25.10;73.40;;;;;;5056629;28;20036;-75
2023/06/15 09:17:43;;;;;;;5.97;3.30;;;25.20;72.60;;;;;;5074494;28;20052;-75
2023/06/15 09:20:10;;;;;;;5.78;3.20;;;25.20;72.80;;;;;;5055678;28;20063;-75
2023/06/15 09:22:42;;;;;;;6.55;3.38;;;25.30;73.00;;;;;;5055643;28;20093;-75
2023/06/15 09:25:32;;;;;;;5.15;3.15;;;25.30;71.20;;;;;;5038648;28;20028;-75
2023/06/15 09:28:06;;;;;;;6.82;2.92;;;25.40;70.20;;;;;;5073310;28;20103;-75
2023/06/15 09:30:33;;;;;;;6.88;3.13;;;25.50;70.50;;;;;;5055010;28;20116;-75
2023/06/15 09:33:17;;;;;;;7.05;3.65;;;25.50;70.30;;;;;;5073589;28;20039;-75
2023/06/15 09:35:56;;;;;;;7.50;3.13;;;25.60;69.50;;;;;;5055463;28;20535;-75
2023/06/15 09:38:21;;;;;;;5.35;3.30;;;25.80;70.30;;;;;;5058828;28;20603;-75
2023/06/15 09:40:47;;;;;;;8.20;3.08;;;25.80;69.70;;;;;;5036468;28;20123;-75
2023/06/15 09:43:14;;;;;;;8.15;3.17;;;25.90;68.70;;;;;;5054661;28;20044;-76
2023/06/15 09:45:53;;;;;;;5.18;3.70;;;25.90;68.20;;;;;;5064134;28;20132;-75
2023/06/15 09:48:18;;;;;;;7.43;3.63;;;26.00;69.60;;;;;;5049261;28;20041;-75
2023/06/15 09:50:51;;;;;;;8.57;3.65;;;26.10;68.40;;;;;;5064794;28;20040;-75
2023/06/15 09:53:18;;;;;;;5.32;3.42;;;26.10;66.80;;;;;;5071110;28;20490;-75
2023/06/15 09:55:46;;;;;;;7.97;3.38;;;26.10;68.10;;;;;;5068976;28;20497;-75
2023/06/15 09:58:12;;;;;;;4.22;3.30;;;26.30;68.80;;;;;;5065410;28;20664;-75
2023/06/15 10:00:38;;;;;;;4.80;3.03;;;26.50;68.20;;;;;;5070701;28;20540;-75
2023/06/15 10:03:08;;;;;;;5.55;3.42;;;26.60;68.00;;;;;;5056001;28;20068;-76
2023/06/15 10:05:43;;;;;;;6.43;3.20;;;26.70;66.80;;;;;;5070012;28;20033;-76
2023/06/15 10:08:11;;;;;;;7.82;2.88;;;26.80;66.40;;;;;;5054420;28;20605;-76
2023/06/15 10:10:41;;;;;;;8.00;3.22;;;26.90;66.50;;;;;;5088678;28;20025;-75
2023/06/15 10:13:12;;;;;;;9.85;3.63;;;26.90;65.20;;;;;;5055803;28;20382;-75
2023/06/15 10:15:43;;;;;;;5.32;3.30;;;27.10;64.00;;;;;;5068918;28;20040;-75
2023/06/15 10:18:12;;;;;;;10.88;3.47;;;27.20;64.40;;;;;;5067179;28;20183;-76
2023/06/15 10:20:38;;;;;;;3.97;3.35;;;27.30;64.80;;;;;;5111124;28;20503;-76
2023/06/15 10:23:13;;;;;;;4.00;3.22;;;27.30;64.20;;;;;;5109139;28;20096;-77
2023/06/15 10:25:42;;;;;;;7.20;4.32;;;27.30;65.00;;;;;;5070955;28;20473;-75
2023/06/15 10:28:12;;;;;;;6.05;3.75;;;27.20;63.50;;;;;;5105447;28;20513;-76
2023/06/15 10:30:42;;;;;;;6.15;3.50;;;27.10;63.70;;;;;;5071917;28;20064;-76
2023/06/15 10:33:22;;;;;;;7.25;3.80;;;27.10;63.70;;;;;;5061589;28;20033;-85
2023/06/15 10:35:59;;;;;;;9.43;3.40;;;27.20;64.00;;;;;;5060629;28;20049;-65
2023/06/15 10:38:52;;;;;;;5.68;3.33;;;27.30;65.00;;;;;;5065464;28;20120;-77
2023/06/15 10:41:18;;;;;;;8.70;3.10;;;27.40;61.40;;;;;;5057317;28;20405;-77
2023/06/15 10:43:59;;;;;;;3.78;3.20;;;27.40;62.70;;;;;;5071150;28;20036;-77
2023/06/15 10:46:33;;;;;;;6.30;3.13;;;27.50;60.10;;;;;;5103093;28;20040;-77
2023/06/15 10:49:04;;;;;;;6.50;3.13;;;27.50;60.40;;;;;;5065242;28;20041;-76
2023/06/15 10:51:33;;;;;;;5.03;3.17;;;27.50;61.20;;;;;;5065019;28;20382;-77
2023/06/15 10:53:59;;;;;;;3.80;3.15;;;27.60;61.60;;;;;;5069011;28;20405;-77
2023/06/15 10:56:27;;;;;;;6.03;3.55;;;27.70;61.80;;;;;;5035092;28;20043;-78
2023/06/15 10:59:03;;;;;;;9.98;4.07;;;27.80;61.90;;;;;;5086911;28;20032;-77
2023/06/15 11:01:33;;;;;;;5.30;3.50;;;27.90;61.60;;;;;;5054250;28;20049;-77
2023/06/15 11:04:01;;;;;;;9.15;3.45;;;28.00;61.00;;;;;;5082636;28;20060;-77
2023/06/15 11:06:30;;;;;;;4.90;3.35;;;28.10;61.90;;;;;;5059916;28;20033;-77
2023/06/15 11:09:11;;;;;;;6.88;3.40;;;28.30;60.40;;;;;;5074407;28;20040;-77
2023/06/15 11:11:39;;;;;;;6.28;3.53;;;28.20;60.40;;;;;;5069184;28;20113;-77
2023/06/15 11:14:21;;;;;;;7.57;3.35;;;28.30;60.80;;;;;;5067463;28;20439;-77
2023/06/15 11:17:05;;;;;;;3.67;2.90;;;28.30;60.10;;;;;;5050977;28;20617;-77
2023/06/15 11:19:31;;;;;;;7.47;3.45;;;28.50;59.50;;;;;;5091922;27;20035;-77
2023/06/15 11:22:05;;;;;;;7.65;3.15;;;28.50;59.90;;;;;;5065038;28;20134;-77
2023/06/15 11:24:34;;;;;;;7.05;3.20;;;28.50;58.50;;;;;;5076869;28;20402;-77
2023/06/15 11:27:09;;;;;;;4.97;3.10;;;28.50;57.90;;;;;;5069951;28;20035;-77
2023/06/15 11:29:41;;;;;;;8.10;3.20;;;28.50;58.20;;;;;;5050111;28;20072;-76
2023/06/15 11:32:09;;;;;;;6.05;3.47;;;28.60;58.70;;;;;;5065275;28;20493;-77
2023/06/15 11:34:36;;;;;;;6.80;2.78;;;28.70;59.30;;;;;;5069492;28;20040;-77
2023/06/15 11:37:03;;;;;;;7.13;3.30;;;28.70;58.50;;;;;;5070012;28;20119;-77
2023/06/15 11:39:30;;;;;;;8.32;3.08;;;28.80;58.50;;;;;;5086887;28;20555;-77
2023/06/15 11:41:57;;;;;;;8.90;3.42;;;28.60;58.20;;;;;;5049999;28;20405;-77
2023/06/15 11:44:25;;;;;;;6.55;3.22;;;28.60;57.70;;;;;;5062301;28;20039;-77
2023/06/15 11:46:59;;;;;;;5.88;3.20;;;28.70;58.00;;;;;;5100225;28;20494;-77
2023/06/15 11:49:31;;;;;;;3.58;2.78;;;28.70;58.60;;;;;;5099776;27;20043;-77
2023/06/15 11:51:57;;;;;;;6.05;3.00;;;28.80;58.40;;;;;;5041780;28;20120;-77
2023/06/15 11:54:28;;;;;;;8.35;2.97;;;28.80;57.70;;;;;;5053580;28;20173;-77
2023/06/15 11:56:58;;;;;;;5.05;3.10;;;28.80;58.30;;;;;;5102767;28;20045;-78
2023/06/15 11:59:25;;;;;;;4.72;3.33;;;28.90;57.40;;;;;;5082163;28;20033;-78
2023/06/15 12:01:53;;;;;;;9.95;3.05;;;28.90;56.40;;;;;;5060001;28;20062;-78
2023/06/15 12:04:19;;;;;;;10.07;3.17;;;28.90;55.90;;;;;;5066911;28;20124;-78
2023/06/15 12:06:48;;;;;;;4.38;2.90;;;28.90;56.20;;;;;;5046746;28;20166;-78
2023/06/15 12:09:19;;;;;;;7.32;3.03;;;28.90;54.80;;;;;;5053209;28;20115;-78
2023/06/15 12:11:45;;;;;;;4.53;2.53;;;29.10;55.80;;;;;;5052054;28;20047;-78
2023/06/15 12:14:20;;;;;;;3.28;2.67;;;29.20;55.40;;;;;;5052051;28;20036;-78
2023/06/15 12:16:50;;;;;;;3.72;2.80;;;29.20;55.10;;;;;;5043158;28;20076;-78
2023/06/15 12:19:16;;;;;;;5.10;2.97;;;29.20;54.50;;;;;;5051347;28;20497;-79
2023/06/15 12:21:43;;;;;;;3.88;2.97;;;29.30;54.40;;;;;;5085084;28;20123;-78
2023/06/15 12:24:17;;;;;;;5.18;2.90;;;29.30;54.20;;;;;;5065954;28;20239;-78
2023/06/15 12:26:57;;;;;;;5.93;2.97;;;29.30;52.90;;;;;;5031823;28;20041;-78
2023/06/15 12:29:25;;;;;;;3.85;2.80;;;29.40;52.20;;;;;;5047870;28;20037;-78
2023/06/15 12:31:53;;;;;;;5.78;3.40;;;29.40;53.40;;;;;;5068822;28;20051;-78
2023/06/15 12:34:24;;;;;;;7.10;2.83;;;29.30;53.00;;;;;;5052940;28;20489;-77
2023/06/15 12:36:51;;;;;;;5.95;3.00;;;29.30;53.00;;;;;;5050166;28;20041;-77
2023/06/15 12:39:18;;;;;;;4.28;3.00;;;29.30;53.30;;;;;;5046601;28;20037;-77
2023/06/15 12:41:44;;;;;;;4.47;3.10;;;29.40;53.50;;;;;;5067111;28;20045;-77
2023/06/15 12:44:10;;;;;;;3.58;2.80;;;29.40;53.00;;;;;;5101974;28;20040;-77
2023/06/15 12:46:39;;;;;;;5.03;2.92;;;29.30;52.90;;;;;;5047009;28;20090;-78
2023/06/15 12:49:12;;;;;;;4.88;2.55;;;29.30;52.70;;;;;;5046476;28;20040;-79